createdAt,value
2023-08-11T00:00:44.926Z,99877.41
2023-08-11T00:03:51.410Z,99869.88
2023-08-11T00:06:58.905Z,99860.09
2023-08-11T00:13:20.936Z,99845.23
2023-08-11T00:16:26.680Z,99839.09
2023-08-11T00:19:32.343Z,99853.08
2023-08-11T00:22:38.216Z,99860.06
2023-08-11T00:25:43.475Z,99860.08
2023-08-11T00:28:49.417Z,99851.97
2023-08-11T00:31:56.011Z,99853.35
2023-08-11T00:35:01.700Z,99858.69
2023-08-11T00:38:00.708Z,99845.25
2023-08-11T00:41:07.419Z,99855.34
2023-08-11T00:44:12.560Z,99848.05
2023-08-11T00:47:19.063Z,99853.91
2023-08-11T00:50:26.626Z,99853.06
2023-08-11T00:53:33.087Z,99857.87
2023-08-11T00:56:38.347Z,99856.46
2023-08-11T00:59:43.236Z,99848.36
2023-08-11T01:02:50.457Z,99838.83
2023-08-11T01:05:59.650Z,99836.84
2023-08-11T01:09:20.182Z,99830.61
2023-08-11T01:12:56.413Z,99827.30
2023-08-11T01:16:09.171Z,99825.33
2023-08-11T01:19:15.756Z,99827.02
2023-08-11T01:22:29.227Z,99827.05
2023-08-11T01:25:35.323Z,99822.56
2023-08-11T01:28:41.072Z,99823.09
2023-08-11T01:31:48.237Z,99836.77
2023-08-11T01:34:55.516Z,99846.00
2023-08-11T01:38:03.916Z,99847.34
2023-08-11T01:41:09.244Z,99857.41
2023-08-11T01:44:15.131Z,99853.56
2023-08-11T01:47:20.812Z,99858.55
2023-08-11T01:50:29.533Z,99861.92
2023-08-11T01:53:36.325Z,99860.55
2023-08-11T01:56:42.964Z,99845.69
2023-08-11T01:59:49.423Z,99830.61
2023-08-11T02:02:57.236Z,99823.19
2023-08-11T02:06:06.456Z,99840.50
2023-08-11T02:09:20.904Z,99831.86
2023-08-11T02:12:26.572Z,99831.97
2023-08-11T02:15:31.598Z,99844.11
2023-08-11T02:18:38.231Z,99851.31
2023-08-11T02:21:46.026Z,99859.81
2023-08-11T02:24:51.126Z,99880.34
2023-08-11T02:27:58.116Z,99846.45
2023-08-11T02:31:03.619Z,99852.00
2023-08-11T02:34:11.839Z,99838.03
2023-08-11T02:37:18.427Z,99832.77
2023-08-11T02:40:27.903Z,99832.84
2023-08-11T02:43:34.831Z,99829.53
2023-08-11T02:46:39.596Z,99823.91
2023-08-11T02:49:48.219Z,99819.75
2023-08-11T02:52:53.954Z,99822.82
2023-08-11T02:56:00.712Z,99830.05
2023-08-11T02:59:06.139Z,99841.01
2023-08-11T03:02:13.092Z,99863.28
2023-08-11T03:05:20.091Z,99868.95
2023-08-11T03:08:27.185Z,99862.88
2023-08-11T03:11:32.793Z,99835.23
2023-08-11T03:14:37.893Z,99838.87
2023-08-11T03:17:44.158Z,99821.58
2023-08-11T03:20:49.861Z,99842.26
2023-08-11T03:23:55.462Z,99858.95
2023-08-11T03:27:01.244Z,99862.34
2023-08-11T03:30:07.150Z,99881.03
2023-08-11T03:33:12.617Z,99888.66
2023-08-11T03:36:22.643Z,99898.09
2023-08-11T03:39:28.666Z,99899.45
2023-08-11T03:42:34.228Z,99902.98
2023-08-11T03:45:40.886Z,99904.51
2023-08-11T03:48:46.562Z,99916.45
2023-08-11T03:51:53.172Z,99916.84
2023-08-11T03:55:00.061Z,99904.96
2023-08-11T03:58:05.466Z,99892.82
2023-08-11T04:01:12.486Z,99881.25
2023-08-11T04:04:18.556Z,99886.47
2023-08-11T04:07:24.422Z,99874.92
2023-08-11T04:10:34.389Z,99876.33
2023-08-11T04:13:40.494Z,99882.55
2023-08-11T04:16:45.788Z,99869.27
2023-08-11T04:19:51.275Z,99855.25
2023-08-11T04:22:58.746Z,99853.55
2023-08-11T04:26:06.744Z,99848.98
2023-08-11T04:29:11.795Z,99853.11
2023-08-11T04:32:18.261Z,99848.01
2023-08-11T04:35:24.218Z,99852.64
2023-08-11T04:38:30.282Z,99857.64
2023-08-11T04:41:36.340Z,99856.50
2023-08-11T04:44:42.439Z,99860.05
2023-08-11T04:47:53.050Z,99856.37
2023-08-11T04:50:59.924Z,99847.13
2023-08-11T04:54:08.747Z,99835.03
2023-08-11T04:57:14.992Z,99839.66
2023-08-11T05:00:24.435Z,99839.92
2023-08-11T05:03:30.438Z,99848.77
2023-08-11T05:06:36.822Z,99845.77
2023-08-11T05:09:46.361Z,99844.16
2023-08-11T05:12:51.278Z,99843.55
2023-08-11T05:15:58.246Z,99849.09
2023-08-11T05:19:03.925Z,99838.23
2023-08-11T05:22:09.456Z,99829.42
2023-08-11T05:25:15.093Z,99818.39
2023-08-11T05:28:20.957Z,99813.59
2023-08-11T05:31:26.816Z,99800.95
2023-08-11T05:34:32.990Z,99802.63
2023-08-11T05:37:39.560Z,99798.16
2023-08-11T05:40:45.950Z,99799.65
2023-08-11T05:43:52.499Z,99802.17
2023-08-11T05:46:58.747Z,99811.44
2023-08-11T05:50:04.624Z,99830.94
2023-08-11T05:53:11.374Z,99830.94
2023-08-11T05:56:18.918Z,99831.61
2023-08-11T05:59:24.721Z,99837.00
2023-08-11T06:02:31.421Z,99829.20
2023-08-11T06:05:37.038Z,99826.21
2023-08-11T06:08:44.478Z,99832.03
2023-08-11T06:11:50.366Z,99834.27
2023-08-11T06:14:55.822Z,99830.34
2023-08-11T06:18:06.662Z,99843.48
2023-08-11T06:21:14.344Z,99834.02
2023-08-11T06:24:21.947Z,99830.75
2023-08-11T06:27:31.690Z,99822.08
2023-08-11T06:30:37.927Z,99815.77
2023-08-11T06:33:43.992Z,99809.85
2023-08-11T06:36:50.048Z,99791.65
2023-08-11T06:39:55.962Z,99780.47
2023-08-11T06:43:02.080Z,99766.07
2023-08-11T06:46:11.099Z,99761.08
2023-08-11T06:49:23.257Z,99759.53
2023-08-11T06:52:29.754Z,99754.31
2023-08-11T06:55:34.962Z,99753.25
2023-08-11T06:58:40.397Z,99764.06
2023-08-11T07:01:46.830Z,99775.23
2023-08-11T07:04:52.758Z,99782.92
2023-08-11T07:07:59.586Z,99781.84
2023-08-11T07:11:05.423Z,99792.84
2023-08-11T07:14:11.897Z,99804.75
2023-08-11T07:17:17.588Z,99803.06
2023-08-11T07:20:23.714Z,99806.72
2023-08-11T07:23:29.373Z,99800.87
2023-08-11T07:26:34.787Z,99797.46
2023-08-11T07:29:40.759Z,99786.17
2023-08-11T07:32:46.799Z,99790.05
2023-08-11T07:35:53.075Z,99796.08
2023-08-11T07:39:12.761Z,99798.30
2023-08-11T07:42:08.690Z,99779.03
2023-08-11T07:45:15.224Z,99767.86
2023-08-11T07:48:20.213Z,99759.88
2023-08-11T07:51:25.413Z,99778.55
2023-08-11T07:54:31.494Z,99771.23
2023-08-11T07:57:37.634Z,99763.43
2023-08-11T08:00:43.655Z,99763.70
2023-08-11T08:03:49.211Z,99764.20
2023-08-11T08:06:55.021Z,99767.41
2023-08-11T08:10:00.982Z,99769.16
2023-08-11T08:13:08.106Z,99790.06
2023-08-11T08:16:13.879Z,99807.89
2023-08-11T08:19:20.254Z,99806.22
2023-08-11T08:22:27.929Z,99795.89
2023-08-11T08:25:32.955Z,99800.12
2023-08-11T08:28:38.855Z,99802.59
2023-08-11T08:31:45.254Z,99815.81
2023-08-11T08:34:51.425Z,99823.66
2023-08-11T08:37:57.888Z,99831.66
2023-08-11T08:41:04.007Z,99846.13
2023-08-11T08:44:10.893Z,99866.54
2023-08-11T08:47:16.994Z,99885.17
2023-08-11T08:50:23.638Z,99915.80
2023-08-11T08:53:29.267Z,99946.86
2023-08-11T08:56:34.983Z,99959.81
2023-08-11T08:59:41.807Z,99963.77
2023-08-11T09:02:47.907Z,99948.97
2023-08-11T09:05:55.664Z,99918.77
2023-08-11T09:09:03.341Z,99900.28
2023-08-11T09:12:12.772Z,99885.81
2023-08-11T09:15:27.005Z,99878.83
2023-08-11T09:18:27.134Z,99855.87
2023-08-11T09:21:35.240Z,99834.03
2023-08-11T09:24:40.353Z,99804.37
2023-08-11T09:27:47.179Z,99782.01
2023-08-11T09:30:55.861Z,99765.16
2023-08-11T09:34:01.778Z,99751.18
2023-08-11T09:37:07.824Z,99729.44
2023-08-11T09:40:13.520Z,99715.42
2023-08-11T09:43:19.141Z,99720.23
2023-08-11T09:46:27.842Z,99740.12
2023-08-11T09:49:31.931Z,99748.22
2023-08-11T09:52:37.864Z,99764.20
2023-08-11T09:55:44.517Z,99777.92
2023-08-11T09:58:53.623Z,99796.06
2023-08-11T10:02:00.319Z,99778.98
2023-08-11T10:05:14.949Z,99763.27
2023-08-11T10:08:21.653Z,99770.81
2023-08-11T10:11:28.021Z,99749.80
2023-08-11T10:14:35.005Z,99719.30
2023-08-11T10:17:40.958Z,99699.78
2023-08-11T10:20:47.680Z,99678.50
2023-08-11T10:23:52.744Z,99659.82
2023-08-11T10:26:59.127Z,99650.37
2023-08-11T10:30:05.200Z,99631.45
2023-08-11T10:33:22.041Z,99620.07
2023-08-11T10:36:22.013Z,99594.35
2023-08-11T10:39:21.707Z,99585.22
2023-08-11T10:42:31.395Z,99572.34
2023-08-11T10:45:37.449Z,99568.59
2023-08-11T10:48:43.796Z,99575.75
2023-08-11T10:51:52.573Z,99576.84
2023-08-11T10:55:06.513Z,99585.43
2023-08-11T10:58:30.624Z,99588.85
2023-08-11T11:01:36.316Z,99585.67
2023-08-11T11:04:48.354Z,99592.61
2023-08-11T11:07:54.686Z,99582.40
2023-08-11T11:11:00.474Z,99578.84
2023-08-11T11:14:07.040Z,99612.37
2023-08-11T11:17:16.407Z,99632.92
2023-08-11T11:20:23.741Z,99622.64
2023-08-11T11:23:29.158Z,99630.37
2023-08-11T11:26:42.946Z,99645.73
2023-08-11T11:29:47.746Z,99655.16
2023-08-11T11:32:57.270Z,99670.88
2023-08-11T11:36:04.188Z,99683.34
2023-08-11T11:39:11.052Z,99700.34
2023-08-11T11:42:25.975Z,99716.30
2023-08-11T11:45:31.529Z,99731.94
2023-08-11T11:48:31.123Z,99761.97
2023-08-11T11:51:24.015Z,99773.07
2023-08-11T11:54:30.808Z,99781.20
2023-08-11T11:57:37.666Z,99794.96
2023-08-11T12:00:43.480Z,99811.44
2023-08-11T12:03:50.774Z,99822.14
2023-08-11T12:06:58.000Z,99838.31
2023-08-11T12:10:01.603Z,99832.78
2023-08-11T12:13:09.103Z,99826.92
2023-08-11T12:16:15.559Z,99835.82
2023-08-11T12:19:22.327Z,99840.47
2023-08-11T12:22:29.021Z,99846.94
2023-08-11T12:25:35.015Z,99837.00
2023-08-11T12:28:41.391Z,99839.41
2023-08-11T12:31:46.394Z,99822.86
2023-08-11T12:34:51.511Z,99801.63
2023-08-11T12:37:57.379Z,99780.15
2023-08-11T12:41:03.766Z,99792.55
2023-08-11T12:44:09.867Z,99791.88
2023-08-11T12:47:15.600Z,99821.77
2023-08-11T12:50:22.999Z,99830.87
2023-08-11T12:53:28.074Z,99825.67
2023-08-11T12:56:33.818Z,99822.08
2023-08-11T12:59:39.560Z,99813.86
2023-08-11T13:02:46.080Z,99812.67
2023-08-11T13:05:51.626Z,99814.30
2023-08-11T13:08:58.475Z,99810.29
2023-08-11T13:12:04.616Z,99796.29
2023-08-11T13:15:10.148Z,99778.70
2023-08-11T13:18:15.854Z,99785.06
2023-08-11T13:21:22.294Z,99757.00
2023-08-11T13:24:28.142Z,99751.38
2023-08-11T13:27:34.625Z,99727.23
2023-08-11T13:30:43.465Z,99724.92
2023-08-11T13:33:48.123Z,99738.38
2023-08-11T13:36:53.951Z,99751.97
2023-08-11T13:39:59.455Z,99756.34
2023-08-11T13:43:04.845Z,99741.92
2023-08-11T13:46:11.390Z,99746.09
2023-08-11T13:49:10.557Z,99746.98
2023-08-11T13:52:15.789Z,99738.22
2023-08-11T13:55:20.714Z,99733.75
2023-08-11T13:58:26.586Z,99726.45
2023-08-11T14:01:32.661Z,99725.81
2023-08-11T14:04:39.671Z,99726.56
2023-08-11T14:07:45.904Z,99732.34
2023-08-11T14:10:52.275Z,99719.14
2023-08-11T14:13:59.223Z,99714.77
2023-08-11T14:17:05.545Z,99712.52
2023-08-11T14:20:11.000Z,99701.21
2023-08-11T14:23:17.257Z,99719.23
2023-08-11T14:26:24.555Z,99723.19
2023-08-11T14:29:30.254Z,99720.75
2023-08-11T14:32:36.716Z,99725.25
2023-08-11T14:35:45.607Z,99725.24
2023-08-11T14:38:51.258Z,99721.68
2023-08-11T14:41:57.217Z,99708.52
2023-08-11T14:45:02.700Z,99720.11
2023-08-11T14:48:08.677Z,99725.44
2023-08-11T14:51:13.955Z,99732.03
2023-08-11T14:54:19.323Z,99724.48
2023-08-11T14:57:26.205Z,99725.50
2023-08-11T15:00:32.786Z,99745.70
2023-08-11T15:03:41.156Z,99756.87
2023-08-11T15:06:46.790Z,99756.58
2023-08-11T15:09:53.501Z,99754.67
2023-08-11T15:13:00.673Z,99744.16
2023-08-11T15:16:06.698Z,99746.93
2023-08-11T15:19:12.793Z,99742.17
2023-08-11T15:22:18.102Z,99758.31
2023-08-11T15:25:23.839Z,99761.48
2023-08-11T15:28:30.036Z,99771.67
2023-08-11T15:31:35.992Z,99770.53
2023-08-11T15:34:42.518Z,99772.42
2023-08-11T15:37:47.013Z,99763.07
2023-08-11T15:40:53.474Z,99762.17
2023-08-11T15:43:52.866Z,99763.23
2023-08-11T15:46:59.367Z,99759.03
2023-08-11T15:50:04.202Z,99758.77
2023-08-11T15:53:10.821Z,99761.09
2023-08-11T15:56:15.803Z,99768.35
2023-08-11T15:59:21.794Z,99756.49
2023-08-11T16:02:29.023Z,99760.90
2023-08-11T16:05:35.368Z,99767.32
2023-08-11T16:08:42.362Z,99772.75
2023-08-11T16:11:49.879Z,99769.71
2023-08-11T16:14:55.836Z,99765.05
2023-08-11T16:18:02.999Z,99759.95
2023-08-11T16:21:10.990Z,99752.55
2023-08-11T16:24:16.659Z,99752.99
2023-08-11T16:27:22.506Z,99743.30
2023-08-11T16:30:28.735Z,99737.42
2023-08-11T16:33:35.475Z,99738.83
2023-08-11T16:36:42.011Z,99741.53
2023-08-11T16:39:47.712Z,99747.44
2023-08-11T16:42:47.456Z,99742.92
2023-08-11T16:45:53.155Z,99746.19
2023-08-11T16:48:58.771Z,99737.27
2023-08-11T16:52:04.881Z,99737.33
2023-08-11T16:55:11.396Z,99738.77
2023-08-11T16:58:16.212Z,99742.19
2023-08-11T17:01:22.310Z,99738.98
2023-08-11T17:04:27.962Z,99738.72
2023-08-11T17:07:33.626Z,99744.73
2023-08-11T17:10:53.082Z,99747.14
2023-08-11T17:13:59.045Z,99748.77
2023-08-11T17:17:04.988Z,99745.73
2023-08-11T17:20:12.669Z,99747.94
2023-08-11T17:23:19.337Z,99746.54
2023-08-11T17:26:24.522Z,99751.27
2023-08-11T17:29:31.376Z,99750.91
2023-08-11T17:32:37.607Z,99747.80
2023-08-11T17:35:43.235Z,99741.63
2023-08-11T17:38:49.625Z,99741.36
2023-08-11T17:41:55.417Z,99735.50
2023-08-11T17:45:00.930Z,99721.00
2023-08-11T17:48:07.741Z,99724.64
2023-08-11T17:51:14.410Z,99729.37
2023-08-11T17:54:20.884Z,99730.16
2023-08-11T17:57:26.373Z,99719.83
2023-08-11T18:00:32.397Z,99716.27
2023-08-11T18:03:36.846Z,99717.74
2023-08-11T18:06:35.276Z,99729.06
2023-08-11T18:09:44.060Z,99734.84
2023-08-11T18:12:50.612Z,99736.73
2023-08-11T18:15:56.409Z,99730.80
2023-08-11T18:19:02.866Z,99730.19
2023-08-11T18:22:08.888Z,99737.25
2023-08-11T18:25:16.064Z,99735.03
2023-08-11T18:28:22.609Z,99735.66
2023-08-11T18:31:27.824Z,99738.45
2023-08-11T18:34:33.833Z,99740.39
2023-08-11T18:37:39.747Z,99728.56
2023-08-11T18:40:44.591Z,99719.34
2023-08-11T18:43:49.862Z,99719.34
2023-08-11T18:46:56.745Z,99712.64
2023-08-11T18:50:02.557Z,99724.89
2023-08-11T18:53:08.267Z,99711.77
2023-08-11T18:56:14.252Z,99722.41
2023-08-11T18:59:20.532Z,99726.39
2023-08-11T19:02:27.147Z,99724.17
2023-08-11T19:05:33.554Z,99733.09
2023-08-11T19:08:40.187Z,99742.91
2023-08-11T19:11:46.435Z,99746.84
2023-08-11T19:14:52.227Z,99742.33
2023-08-11T19:17:57.851Z,99741.83
2023-08-11T19:21:03.416Z,99750.47
2023-08-11T19:24:08.546Z,99743.46
2023-08-11T19:27:14.988Z,99743.48
2023-08-11T19:30:20.868Z,99744.07
2023-08-11T19:33:26.189Z,99744.57
2023-08-11T19:36:32.991Z,99738.75
2023-08-11T19:39:39.399Z,99735.36
2023-08-11T19:42:45.184Z,99747.88
2023-08-11T19:45:50.714Z,99756.83
2023-08-11T19:48:57.131Z,99752.67
2023-08-11T19:52:02.593Z,99756.50
2023-08-11T19:55:08.345Z,99760.78
2023-08-11T19:58:13.568Z,99759.47
2023-08-11T20:01:20.248Z,99759.70
2023-08-11T20:04:20.339Z,99759.98
2023-08-11T20:07:26.808Z,99761.89
2023-08-11T20:10:45.754Z,99770.55
2023-08-11T20:13:51.308Z,99774.47
2023-08-11T20:16:57.864Z,99773.64
2023-08-11T20:20:04.822Z,99778.40
2023-08-11T20:23:10.660Z,99776.88
2023-08-11T20:26:16.551Z,99784.72
2023-08-11T20:29:15.517Z,99788.05
2023-08-11T20:32:22.327Z,99783.38
2023-08-11T20:35:28.072Z,99786.43
2023-08-11T20:38:38.870Z,99782.70
2023-08-11T20:41:43.174Z,99774.43
2023-08-11T20:44:49.389Z,99774.52
2023-08-11T20:47:55.259Z,99775.09
2023-08-11T20:51:06.710Z,99769.22
2023-08-11T20:54:12.231Z,99776.19
2023-08-11T20:57:18.254Z,99775.95
2023-08-11T21:00:24.808Z,99761.70
2023-08-11T21:03:30.872Z,99763.66
2023-08-11T21:06:36.166Z,99760.02
2023-08-11T21:09:43.210Z,99748.84
2023-08-11T21:12:49.072Z,99742.70
2023-08-11T21:15:55.589Z,99746.91
2023-08-11T21:19:02.177Z,99750.81
2023-08-11T21:22:08.638Z,99759.75
2023-08-11T21:25:15.397Z,99776.22
2023-08-11T21:28:22.069Z,99776.48
2023-08-11T21:31:28.704Z,99769.19
2023-08-11T21:34:34.428Z,99771.41
2023-08-11T21:37:40.442Z,99761.94
2023-08-11T21:40:46.441Z,99758.61
2023-08-11T21:43:53.041Z,99746.61
2023-08-11T21:46:58.407Z,99751.33
2023-08-11T21:50:04.794Z,99741.77
2023-08-11T21:53:22.539Z,99740.04
2023-08-11T21:56:17.567Z,99745.61
2023-08-11T21:59:23.740Z,99736.97
2023-08-11T22:02:29.364Z,99735.60
2023-08-11T22:05:45.981Z,99732.56
2023-08-11T22:08:51.747Z,99735.89
2023-08-11T22:11:51.450Z,99750.36
2023-08-11T22:14:58.762Z,99742.77
2023-08-11T22:18:03.801Z,99754.67
2023-08-11T22:21:12.480Z,99757.28
2023-08-11T22:24:27.127Z,99754.51
2023-08-11T22:27:25.574Z,99751.60
2023-08-11T22:30:31.683Z,99766.97
2023-08-11T22:33:37.710Z,99780.95
2023-08-11T22:36:42.954Z,99777.98
2023-08-11T22:39:48.531Z,99763.39
2023-08-11T22:42:54.753Z,99757.26
2023-08-11T22:46:01.134Z,99754.95
2023-08-11T22:49:07.118Z,99745.49
2023-08-11T22:52:13.035Z,99752.73
2023-08-11T22:55:19.687Z,99765.63
2023-08-11T22:58:25.545Z,99753.70
2023-08-11T23:01:31.953Z,99747.33
2023-08-11T23:04:38.405Z,99751.02
2023-08-11T23:07:44.858Z,99768.55
2023-08-11T23:10:50.641Z,99768.49
2023-08-11T23:13:56.484Z,99764.30
2023-08-11T23:17:02.238Z,99754.84
2023-08-11T23:20:08.960Z,99753.08
2023-08-11T23:23:15.583Z,99770.14
2023-08-11T23:26:21.405Z,99769.92
2023-08-11T23:29:27.507Z,99772.45
2023-08-11T23:32:34.204Z,99775.08
2023-08-11T23:35:40.571Z,99776.93
2023-08-11T23:38:47.476Z,99777.03
2023-08-11T23:41:53.572Z,99782.05
2023-08-11T23:44:59.256Z,99784.30
2023-08-11T23:48:04.790Z,99784.86
2023-08-11T23:51:11.291Z,99794.06
2023-08-11T23:54:16.256Z,99789.08
2023-08-11T23:57:23.519Z,99797.97
